Gnadenhutten, Ohio
Current Conditions -  °F | °C
As of 5:24 PM on Sunday 25 Jan 2015 (Local Time) from KPHD Reporting Station
Light Snow Light Snow  
Wind Chill: 26°   Ceiling: 1900
Heat Index: 33°   Visibility: 1.5mi
Dew Point: 29°   Wind: 8mph
Humidity: 85%   Direction: 50°NE
Pressure: 29.78"   Gusts: NA
Location:  40.36°N, 81.43°W
Report Text: KPHD 252224Z AUTO 05007KT 1 1/2SM -SN BR OVC019 01/M02 A2978 RMK AO2 P0000 T00061017
Loading
Personal Weather Stations






























Interactive Weather Map New forecast layout! Learn more

10-Day Weather Forecast

Advertisements
Track Severe Weather on mobile